Time,TemperatureF,DewpointF,PressureIn,WindDirection,WindDirectionDegrees,WindSpeedMPH,WindSpeedGustMPH,Humidity,HourlyPrecipIn,Conditions,Clouds,dailyrainin,SoftwareType,DateUTC
2013-02-28 00:00:00,42.0,37.2,29.58,NNW,330,0.0,0.0,83,0.01,,---,0.00,VWS V14.01,2013-02-28 05:00:00,
2013-02-28 00:01:00,36.2,31.4,29.56,NW,319,7.4,11.6,82,0.00,,---,0.00,VWS V14.01,2013-02-28 05:01:00,
2013-02-28 00:05:00,41.9,37.1,29.57,NNW,330,0.0,0.0,83,0.01,,---,0.00,VWS V14.01,2013-02-28 05:05:00,
2013-02-28 00:06:00,42.2,38.1,29.56,SSW,201,2.2,2.2,85,0.01,,---,0.03,VWS V14.01,2013-02-28 05:06:00,
2013-02-28 00:10:00,41.3,36.6,29.58,NNW,330,0.0,0.0,83,0.01,,---,0.00,VWS V14.01,2013-02-28 05:10:00,
2013-02-28 00:15:00,42.0,37.3,29.58,NNW,330,0.0,0.0,83,0.02,,---,0.01,VWS V14.01,2013-02-28 05:15:00,
2013-02-28 00:20:00,41.9,37.2,29.57,NNW,330,0.0,0.0,83,0.02,,---,0.01,VWS V14.01,2013-02-28 05:20:00,
2013-02-28 00:25:00,42.4,37.7,29.57,NNW,330,0.0,0.0,83,0.02,,---,0.01,VWS V14.01,2013-02-28 05:25:00,
2013-02-28 00:30:00,41.9,37.2,29.58,NNW,330,0.0,0.0,83,0.01,,---,0.01,VWS V14.01,2013-02-28 05:30:00,
2013-02-28 00:35:00,42.0,37.4,29.57,NNW,342,1.9,2.4,84,0.01,,---,0.01,VWS V14.01,2013-02-28 05:35:00,
2013-02-28 00:40:00,42.2,37.7,29.57,SSW,207,0.4,1.0,84,0.01,,---,0.01,VWS V14.01,2013-02-28 05:40:00,
2013-02-28 00:45:00,42.2,37.7,29.57,North,10,0.0,0.0,84,0.01,,---,0.01,VWS V14.01,2013-02-28 05:45:00,
2013-02-28 00:50:00,42.7,38.2,29.57,North,10,0.0,0.0,84,0.01,,---,0.01,VWS V14.01,2013-02-28 05:50:00,
2013-02-28 00:55:00,41.8,37.3,29.57,SSE,160,2.9,2.9,84,0.01,,---,0.01,VWS V14.01,2013-02-28 05:55:00,
2013-02-28 01:00:00,42.0,37.6,29.57,NE,41,0.0,5.7,84,0.01,,---,0.01,VWS V14.01,2013-02-28 06:00:00,
2013-02-28 01:05:00,42.2,37.8,29.56,SSW,202,0.7,1.5,84,0.01,,---,0.01,VWS V14.01,2013-02-28 06:05:00,
2013-02-28 01:10:00,41.7,37.4,29.57,South,186,1.6,1.9,85,0.02,,---,0.02,VWS V14.01,2013-02-28 06:10:00,
2013-02-28 01:15:00,42.3,38.3,29.56,West,260,2.6,2.6,86,0.01,,---,0.02,VWS V14.01,2013-02-28 06:15:00,
2013-02-28 01:20:00,42.0,38.1,29.57,South,180,3.3,4.0,86,0.01,,---,0.02,VWS V14.01,2013-02-28 06:20:00,
2013-02-28 01:25:00,42.1,38.3,29.56,South,177,2.3,2.5,86,0.01,,---,0.02,VWS V14.01,2013-02-28 06:25:00,
2013-02-28 01:30:00,41.1,37.3,29.56,West,260,0.0,0.9,86,0.01,,---,0.02,VWS V14.01,2013-02-28 06:30:00,
2013-02-28 01:34:00,41.3,37.5,29.56,West,260,0.0,0.0,86,5.13,,---,0.02,VWS V14.01,2013-02-28 06:34:00,
2013-02-28 01:39:00,41.6,37.8,29.57,North,359,0.0,35.6,86,0.01,,---,0.02,VWS V14.01,2013-02-28 06:39:00,
2013-02-28 01:44:00,40.9,37.2,29.57,NNW,342,0.7,1.7,86,0.01,,---,0.02,VWS V14.01,2013-02-28 06:44:00,
2013-02-28 01:49:00,41.8,38.1,29.56,North,6,0.6,1.1,87,0.01,,---,0.02,VWS V14.01,2013-02-28 06:49:00,
2013-02-28 01:54:00,41.3,37.6,29.56,SW,226,0.0,0.0,86,0.01,,---,0.02,VWS V14.01,2013-02-28 06:54:00,
2013-02-28 01:59:00,41.9,38.1,29.56,SW,226,0.0,0.0,86,0.02,,---,0.03,VWS V14.01,2013-02-28 06:59:00,
2013-02-28 02:04:00,40.8,37.0,29.56,SW,226,0.0,0.0,86,0.02,,---,0.03,VWS V14.01,2013-02-28 07:04:00,
2013-02-28 02:09:00,41.6,37.8,29.56,SW,226,0.0,0.0,86,0.01,,---,0.03,VWS V14.01,2013-02-28 07:09:00,
2013-02-28 02:14:00,41.4,37.6,29.56,SW,226,0.0,0.0,86,0.01,,---,0.03,VWS V14.01,2013-02-28 07:14:00,
2013-02-28 02:19:00,42.1,38.3,29.56,SW,226,0.0,0.0,86,0.01,,---,0.03,VWS V14.01,2013-02-28 07:19:00,
2013-02-28 02:24:00,41.6,37.8,29.56,SW,226,0.0,0.0,86,0.01,,---,0.03,VWS V14.01,2013-02-28 07:24:00,
2013-02-28 02:29:00,41.8,37.9,29.56,SW,226,0.0,0.0,86,0.01,,---,0.03,VWS V14.01,2013-02-28 07:29:00,
2013-02-28 02:34:00,42.2,38.2,29.56,WSW,243,2.4,2.5,86,0.01,,---,0.03,VWS V14.01,2013-02-28 07:34:00,
2013-02-28 02:39:00,41.8,37.8,29.56,North,359,0.0,0.4,85,0.01,,---,0.03,VWS V14.01,2013-02-28 07:39:00,
2013-02-28 02:44:00,42.2,38.1,29.56,SSW,201,2.2,2.2,85,0.01,,---,0.03,VWS V14.01,2013-02-28 07:44:00,
2013-02-28 02:49:00,41.8,37.7,29.56,ESE,122,0.0,0.5,85,0.01,,---,0.03,VWS V14.01,2013-02-28 07:49:00,
2013-02-28 02:54:00,42.2,38.0,29.56,ESE,122,0.0,0.0,85,0.01,,---,0.03,VWS V14.01,2013-02-28 07:54:00,
2013-02-28 02:59:00,42.0,37.8,29.56,ESE,122,0.0,0.0,85,0.00,,---,0.04,VWS V14.01,2013-02-28 07:59:00,
2013-02-28 03:04:00,42.0,37.9,29.56,ESE,122,0.0,0.0,85,0.00,,---,0.04,VWS V14.01,2013-02-28 08:04:00,
2013-02-28 03:09:00,41.8,37.6,29.56,ESE,122,0.0,0.0,85,0.00,,---,0.04,VWS V14.01,2013-02-28 08:09:00,
2013-02-28 03:14:00,41.7,37.5,29.56,ESE,122,0.0,0.0,85,0.00,,---,0.04,VWS V14.01,2013-02-28 08:14:00,
2013-02-28 03:19:00,41.4,37.1,29.56,ESE,122,0.0,0.0,85,0.00,,---,0.04,VWS V14.01,2013-02-28 08:19:00,
2013-02-28 03:24:00,42.0,37.6,29.56,ESE,122,0.0,0.0,84,0.00,,---,0.04,VWS V14.01,2013-02-28 08:24:00,
2013-02-28 03:29:00,41.6,37.1,29.56,ESE,118,0.0,1.6,84,0.00,,---,0.04,VWS V14.01,2013-02-28 08:29:00,
2013-02-28 03:34:00,42.4,37.8,29.56,SSW,202,0.0,2.9,84,0.00,,---,0.04,VWS V14.01,2013-02-28 08:34:00,
2013-02-28 03:39:00,42.2,37.5,29.56,East,86,1.6,2.9,83,0.00,,---,0.04,VWS V14.01,2013-02-28 08:39:00,
2013-02-28 03:44:00,42.1,37.3,29.56,East,86,0.0,2.9,83,0.00,,---,0.04,VWS V14.01,2013-02-28 08:44:00,
2013-02-28 03:49:00,42.3,37.4,29.56,WNW,291,0.0,2.9,82,0.01,,---,0.05,VWS V14.01,2013-02-28 08:49:00,
2013-02-28 03:54:00,41.2,36.1,29.55,WNW,291,0.0,2.9,82,0.01,,---,0.05,VWS V14.01,2013-02-28 08:54:00,
2013-02-28 03:59:00,41.9,36.8,29.55,WNW,291,0.0,2.9,82,0.01,,---,0.05,VWS V14.01,2013-02-28 08:59:00,
2013-02-28 04:04:00,42.5,37.1,29.55,West,260,1.3,2.2,81,0.01,,---,0.05,VWS V14.01,2013-02-28 09:04:00,
2013-02-28 04:09:00,42.1,36.8,29.54,SW,219,0.0,0.0,81,0.01,,---,0.05,VWS V14.01,2013-02-28 09:09:00,
2013-02-28 04:14:00,42.0,36.6,29.54,SW,219,0.0,0.0,81,0.01,,---,0.05,VWS V14.01,2013-02-28 09:14:00,
2013-02-28 04:19:00,42.5,37.1,29.55,SW,219,0.0,0.0,81,0.01,,---,0.05,VWS V14.01,2013-02-28 09:19:00,
2013-02-28 04:24:00,41.9,36.3,29.55,SW,219,0.0,0.0,80,0.01,,---,0.05,VWS V14.01,2013-02-28 09:24:00,
2013-02-28 04:29:00,42.2,36.7,29.55,West,259,1.3,1.5,81,0.01,,---,0.05,VWS V14.01,2013-02-28 09:29:00,
2013-02-28 04:34:00,41.8,36.2,29.55,North,359,0.0,0.0,80,0.01,,---,0.05,VWS V14.01,2013-02-28 09:34:00,
2013-02-28 04:39:00,42.0,36.6,29.55,North,359,0.0,0.0,81,0.01,,---,0.05,VWS V14.01,2013-02-28 09:39:00,
2013-02-28 04:44:00,42.1,36.6,29.55,North,359,0.0,0.0,81,0.01,,---,0.05,VWS V14.01,2013-02-28 09:44:00,
2013-02-28 04:49:00,41.6,36.1,29.55,North,359,0.0,0.0,81,0.02,,---,0.06,VWS V14.01,2013-02-28 09:49:00,
2013-02-28 04:54:00,41.8,36.3,29.55,North,359,0.0,0.0,81,0.02,,---,0.06,VWS V14.01,2013-02-28 09:54:00,
2013-02-28 04:59:00,41.8,36.2,29.55,North,359,0.0,0.0,80,0.02,,---,0.06,VWS V14.01,2013-02-28 09:59:00,
2013-02-28 05:04:00,41.7,36.1,29.55,North,359,0.0,0.0,80,0.01,,---,0.06,VWS V14.01,2013-02-28 10:04:00,
2013-02-28 05:09:00,41.9,36.2,29.55,North,359,0.0,0.0,80,0.01,,---,0.06,VWS V14.01,2013-02-28 10:09:00,
2013-02-28 05:14:00,41.2,35.6,29.55,North,359,0.0,0.0,80,0.01,,---,0.06,VWS V14.01,2013-02-28 10:14:00,
2013-02-28 05:19:00,42.1,36.5,29.55,North,359,0.0,0.0,80,0.01,,---,0.06,VWS V14.01,2013-02-28 10:19:00,
2013-02-28 05:24:00,41.7,36.1,29.55,West,277,2.5,2.5,80,0.01,,---,0.06,VWS V14.01,2013-02-28 10:24:00,
2013-02-28 05:29:00,41.6,36.0,29.55,NW,315,0.0,0.0,80,0.01,,---,0.06,VWS V14.01,2013-02-28 10:29:00,
2013-02-28 05:34:00,41.7,36.1,29.55,NW,315,0.0,0.0,80,0.01,,---,0.06,VWS V14.01,2013-02-28 10:34:00,
2013-02-28 05:39:00,41.1,35.5,29.56,NW,315,0.0,0.0,80,0.01,,---,0.06,VWS V14.01,2013-02-28 10:39:00,
2013-02-28 05:44:00,40.9,35.3,29.55,North,359,0.0,0.7,80,0.02,,---,0.07,VWS V14.01,2013-02-28 10:44:00,
2013-02-28 05:49:00,41.6,36.1,29.56,North,359,0.0,0.0,80,0.01,,---,0.07,VWS V14.01,2013-02-28 10:49:00,
2013-02-28 05:54:00,41.4,35.9,29.56,North,359,0.0,0.0,81,0.01,,---,0.07,VWS V14.01,2013-02-28 10:54:00,
2013-02-28 05:59:00,40.7,35.3,29.55,North,359,0.0,3.2,81,0.01,,---,0.07,VWS V14.01,2013-02-28 10:59:00,
2013-02-28 06:04:00,41.1,35.7,29.56,WNW,285,0.0,0.0,81,0.01,,---,0.07,VWS V14.01,2013-02-28 11:04:00,
2013-02-28 06:09:00,41.2,35.8,29.55,WNW,285,0.0,0.0,81,0.01,,---,0.07,VWS V14.01,2013-02-28 11:09:00,
2013-02-28 06:14:00,41.0,35.5,29.56,WNW,285,0.0,0.0,80,0.01,,---,0.07,VWS V14.01,2013-02-28 11:14:00,
2013-02-28 06:19:00,41.3,35.6,29.56,WNW,292,1.8,2.3,80,0.01,,---,0.07,VWS V14.01,2013-02-28 11:19:00,
2013-02-28 06:24:00,40.3,34.6,29.56,North,359,4.5,4.5,80,0.01,,---,0.07,VWS V14.01,2013-02-28 11:24:00,
2013-02-28 06:29:00,41.4,35.6,29.56,North,359,0.6,3.6,80,0.01,,---,0.07,VWS V14.01,2013-02-28 11:29:00,
2013-02-28 06:34:00,41.3,35.5,29.56,ENE,65,0.0,0.0,80,0.01,,---,0.07,VWS V14.01,2013-02-28 11:34:00,
2013-02-28 06:39:00,41.5,35.6,29.56,NW,304,2.9,2.9,79,0.01,,---,0.07,VWS V14.01,2013-02-28 11:39:00,
2013-02-28 06:44:00,41.1,35.0,29.56,NW,322,0.0,0.0,79,0.00,,---,0.07,VWS V14.01,2013-02-28 11:44:00,
2013-02-28 06:49:00,41.6,35.4,29.56,NW,314,0.0,0.0,78,0.01,,---,0.08,VWS V14.01,2013-02-28 11:49:00,
2013-02-28 06:54:00,41.9,35.6,29.56,NW,314,0.0,0.0,78,0.01,,---,0.08,VWS V14.01,2013-02-28 11:54:00,
2013-02-28 06:59:00,41.8,35.5,29.56,NW,314,0.0,0.0,78,0.01,,---,0.08,VWS V14.01,2013-02-28 11:59:00,
2013-02-28 07:04:00,41.8,35.4,29.56,NW,314,0.0,0.0,78,0.01,,---,0.08,VWS V14.01,2013-02-28 12:04:00,
2013-02-28 07:09:00,41.8,35.4,29.56,NW,314,0.0,0.0,78,0.01,,---,0.08,VWS V14.01,2013-02-28 12:09:00,
2013-02-28 07:14:00,41.8,35.5,29.56,NW,314,0.0,0.0,78,0.01,,---,0.08,VWS V14.01,2013-02-28 12:14:00,
2013-02-28 07:19:00,41.4,35.1,29.56,SW,233,1.2,1.2,78,0.01,,---,0.08,VWS V14.01,2013-02-28 12:19:00,
2013-02-28 07:24:00,41.8,35.5,29.57,SW,231,1.7,2.2,78,0.01,,---,0.08,VWS V14.01,2013-02-28 12:24:00,
2013-02-28 07:29:00,41.0,34.7,29.57,WSW,246,0.0,0.0,78,0.01,,---,0.08,VWS V14.01,2013-02-28 12:29:00,
2013-02-28 07:34:00,41.3,35.1,29.57,WSW,246,0.0,0.0,78,0.01,,---,0.08,VWS V14.01,2013-02-28 12:34:00,
2013-02-28 07:39:00,41.9,35.9,29.57,North,359,1.1,1.1,79,0.01,,---,0.08,VWS V14.01,2013-02-28 12:39:00,
2013-02-28 07:44:00,41.4,35.7,29.57,North,359,3.9,3.9,80,0.01,,---,0.08,VWS V14.01,2013-02-28 12:44:00,
2013-02-28 07:49:00,41.5,36.0,29.57,North,359,0.0,0.0,81,0.02,,---,0.09,VWS V14.01,2013-02-28 12:49:00,
2013-02-28 07:54:00,41.3,35.8,29.57,North,359,0.0,0.0,81,0.01,,---,0.09,VWS V14.01,2013-02-28 12:54:00,
2013-02-28 07:59:00,40.8,35.6,29.57,West,278,0.0,0.0,81,0.01,,---,0.09,VWS V14.01,2013-02-28 12:59:00,
2013-02-28 08:04:00,41.0,36.2,29.57,West,278,0.0,0.0,83,0.01,,---,0.09,VWS V14.01,2013-02-28 13:04:00,
2013-02-28 08:09:00,41.0,36.4,29.58,West,278,0.0,0.0,84,0.01,,---,0.09,VWS V14.01,2013-02-28 13:09:00,
2013-02-28 08:14:00,41.1,36.4,29.58,West,278,0.0,0.0,83,0.01,,---,0.09,VWS V14.01,2013-02-28 13:14:00,
2013-02-28 08:19:00,41.2,36.5,29.58,West,278,0.0,0.0,83,0.01,,---,0.09,VWS V14.01,2013-02-28 13:19:00,
2013-02-28 08:24:00,40.4,35.7,29.58,North,359,0.0,0.0,83,0.01,,---,0.09,VWS V14.01,2013-02-28 13:24:00,
2013-02-28 08:29:00,41.8,36.9,29.58,North,359,0.0,0.0,83,0.01,,---,0.09,VWS V14.01,2013-02-28 13:29:00,
2013-02-28 08:34:00,41.6,36.7,29.58,SE,138,1.6,1.6,83,0.01,,---,0.09,VWS V14.01,2013-02-28 13:34:00,
2013-02-28 08:39:00,41.4,36.4,29.58,WNW,294,1.5,5.2,82,0.01,,---,0.09,VWS V14.01,2013-02-28 13:39:00,
2013-02-28 08:44:00,40.8,35.7,29.58,WNW,300,4.5,4.5,82,0.01,,---,0.09,VWS V14.01,2013-02-28 13:44:00,
2013-02-28 08:49:00,41.4,36.0,29.58,West,274,3.6,7.6,81,0.00,,---,0.09,VWS V14.01,2013-02-28 13:49:00,
2013-02-28 08:54:00,41.8,36.4,29.58,West,274,7.7,8.6,81,0.01,,---,0.10,VWS V14.01,2013-02-28 13:54:00,
2013-02-28 08:59:00,41.6,35.7,29.58,North,359,7.5,7.5,79,0.01,,---,0.10,VWS V14.01,2013-02-28 13:59:00,
2013-02-28 09:04:00,41.4,35.4,29.58,WNW,302,7.2,9.3,79,0.01,,---,0.10,VWS V14.01,2013-02-28 14:04:00,
2013-02-28 09:09:00,41.6,34.6,29.58,North,359,1.4,1.4,76,0.01,,---,0.10,VWS V14.01,2013-02-28 14:09:00,
2013-02-28 09:14:00,41.5,34.5,29.58,NW,316,8.9,9.3,76,0.01,,---,0.10,VWS V14.01,2013-02-28 14:14:00,
2013-02-28 09:19:00,41.7,34.3,29.58,NNW,328,5.7,12.1,75,0.01,,---,0.10,VWS V14.01,2013-02-28 14:19:00,
2013-02-28 09:24:00,41.9,34.7,29.57,NW,312,0.9,8.5,76,0.01,,---,0.10,VWS V14.01,2013-02-28 14:24:00,
2013-02-28 09:29:00,42.1,34.8,29.57,NW,322,7.8,8.6,75,0.01,,---,0.10,VWS V14.01,2013-02-28 14:29:00,
2013-02-28 09:34:00,42.7,35.3,29.57,NW,326,8.0,11.3,75,0.01,,---,0.10,VWS V14.01,2013-02-28 14:34:00,
2013-02-28 09:39:00,42.1,34.6,29.56,NNW,336,5.1,9.5,74,0.01,,---,0.10,VWS V14.01,2013-02-28 14:39:00,
2013-02-28 09:44:00,43.3,35.5,29.56,North,349,10.3,13.7,74,0.02,,---,0.11,VWS V14.01,2013-02-28 14:44:00,
2013-02-28 09:49:00,41.9,34.3,29.56,NNE,20,11.6,13.9,74,0.02,,---,0.11,VWS V14.01,2013-02-28 14:49:00,
2013-02-28 09:54:00,42.4,34.8,29.56,North,359,0.4,7.8,74,0.01,,---,0.11,VWS V14.01,2013-02-28 14:54:00,
2013-02-28 09:59:00,42.9,35.6,29.56,NNE,15,6.8,9.3,75,0.01,,---,0.11,VWS V14.01,2013-02-28 14:59:00,
2013-02-28 10:04:00,43.3,35.0,29.55,NNW,346,0.0,8.1,72,0.01,,---,0.11,VWS V14.01,2013-02-28 15:04:00,
2013-02-28 10:09:00,42.6,34.7,29.55,North,10,5.4,9.6,73,0.01,,---,0.11,VWS V14.01,2013-02-28 15:09:00,
2013-02-28 10:14:00,42.7,33.9,29.55,North,359,0.0,6.8,71,0.01,,---,0.11,VWS V14.01,2013-02-28 15:14:00,
2013-02-28 10:18:00,42.8,33.5,29.56,North,7,8.3,9.8,69,0.01,,---,0.11,VWS V14.01,2013-02-28 15:18:00,
2013-02-28 10:23:00,43.5,33.8,29.55,North,359,0.0,10.9,68,0.01,,---,0.11,VWS V14.01,2013-02-28 15:23:00,
2013-02-28 10:28:00,43.2,33.3,29.55,NNE,21,11.6,12.7,68,0.01,,---,0.11,VWS V14.01,2013-02-28 15:28:00,
2013-02-28 10:33:00,43.3,33.6,29.55,North,359,0.0,6.2,68,0.01,,---,0.11,VWS V14.01,2013-02-28 15:33:00,
2013-02-28 10:38:00,43.1,33.4,29.54,NNE,31,6.5,9.4,68,0.01,,---,0.11,VWS V14.01,2013-02-28 15:38:00,
2013-02-28 10:43:00,44.6,35.0,29.54,West,281,5.3,6.3,69,0.01,,---,0.11,VWS V14.01,2013-02-28 15:43:00,
2013-02-28 10:48:00,44.1,33.3,29.54,NNW,329,7.0,8.8,66,0.01,,---,0.12,VWS V14.01,2013-02-28 15:48:00,
2013-02-28 10:53:00,44.0,33.2,29.54,WNW,287,7.6,9.6,65,0.01,,---,0.12,VWS V14.01,2013-02-28 15:53:00,
2013-02-28 10:58:00,44.7,34.0,29.54,WNW,285,4.2,9.0,66,0.01,,---,0.12,VWS V14.01,2013-02-28 15:58:00,
2013-02-28 11:03:00,44.5,33.1,29.54,NNE,31,7.6,9.8,64,0.01,,---,0.12,VWS V14.01,2013-02-28 16:03:00,
2013-02-28 11:08:00,44.5,33.2,29.53,NNW,336,9.6,9.6,64,0.01,,---,0.12,VWS V14.01,2013-02-28 16:08:00,
2013-02-28 11:13:00,43.6,31.9,29.53,NW,316,6.9,8.5,63,0.01,,---,0.12,VWS V14.01,2013-02-28 16:13:00,
2013-02-28 11:18:00,44.8,33.0,29.52,NNW,345,7.9,9.4,63,0.01,,---,0.12,VWS V14.01,2013-02-28 16:18:00,
2013-02-28 11:23:00,44.9,32.9,29.52,NE,37,8.3,10.1,62,0.01,,---,0.12,VWS V14.01,2013-02-28 16:23:00,
2013-02-28 11:28:00,44.7,32.8,29.52,NNW,332,9.4,10.6,63,0.01,,---,0.12,VWS V14.01,2013-02-28 16:28:00,
2013-02-28 11:33:00,45.1,32.6,29.53,ENE,66,7.6,7.6,61,0.01,,---,0.12,VWS V14.01,2013-02-28 16:33:00,
2013-02-28 11:38:00,44.8,32.1,29.52,North,4,7.6,8.9,61,0.02,,---,0.13,VWS V14.01,2013-02-28 16:38:00,
2013-02-28 11:43:00,45.0,32.4,29.52,NW,325,6.5,7.8,61,0.02,,---,0.13,VWS V14.01,2013-02-28 16:43:00,
2013-02-28 11:48:00,44.8,31.1,29.52,NNW,333,7.0,7.5,58,0.01,,---,0.13,VWS V14.01,2013-02-28 16:48:00,
2013-02-28 11:53:00,46.6,33.3,29.52,NW,321,9.1,12.4,60,0.01,,---,0.13,VWS V14.01,2013-02-28 16:53:00,
2013-02-28 11:58:00,47.2,33.1,29.51,West,276,5.1,9.3,58,0.01,,---,0.13,VWS V14.01,2013-02-28 16:58:00,
2013-02-28 12:03:00,47.1,32.8,29.51,NW,305,3.7,9.1,57,0.01,,---,0.13,VWS V14.01,2013-02-28 17:03:00,
2013-02-28 12:08:00,46.8,32.4,29.51,NW,312,4.0,6.4,57,0.01,,---,0.13,VWS V14.01,2013-02-28 17:08:00,
2013-02-28 12:13:00,46.7,32.4,29.51,NW,304,8.1,8.9,57,0.01,,---,0.13,VWS V14.01,2013-02-28 17:13:00,
2013-02-28 12:18:00,46.6,32.6,29.51,NNE,22,4.5,9.9,58,0.01,,---,0.13,VWS V14.01,2013-02-28 17:18:00,
2013-02-28 12:23:00,46.1,32.6,29.51,North,1,8.1,10.0,59,0.01,,---,0.13,VWS V14.01,2013-02-28 17:23:00,
2013-02-28 12:28:00,46.8,33.5,29.51,North,353,8.3,8.3,60,0.01,,---,0.13,VWS V14.01,2013-02-28 17:28:00,
2013-02-28 12:33:00,45.4,32.0,29.50,NNW,330,8.8,11.2,59,0.01,,---,0.13,VWS V14.01,2013-02-28 17:33:00,
2013-02-28 12:38:00,45.5,32.6,29.50,NNW,339,6.8,8.8,60,0.02,,---,0.14,VWS V14.01,2013-02-28 17:38:00,
2013-02-28 12:43:00,44.9,32.0,29.50,NE,35,8.7,9.8,60,0.01,,---,0.14,VWS V14.01,2013-02-28 17:43:00,
2013-02-28 12:48:00,45.9,32.4,29.50,NNW,329,7.8,10.7,59,0.01,,---,0.14,VWS V14.01,2013-02-28 17:48:00,
2013-02-28 12:53:00,45.7,32.2,29.50,WNW,302,6.5,7.5,59,0.01,,---,0.14,VWS V14.01,2013-02-28 17:53:00,
2013-02-28 12:58:00,45.9,31.7,29.50,NW,311,6.6,9.7,57,0.01,,---,0.14,VWS V14.01,2013-02-28 17:58:00,
2013-02-28 13:03:00,45.6,31.6,29.50,West,273,6.2,8.3,58,0.01,,---,0.14,VWS V14.01,2013-02-28 18:03:00,
2013-02-28 13:08:00,44.8,30.1,29.50,WNW,285,9.9,12.1,56,0.01,,---,0.14,VWS V14.01,2013-02-28 18:08:00,
2013-02-28 13:13:00,46.2,31.2,29.50,WNW,298,5.5,9.1,56,0.01,,---,0.14,VWS V14.01,2013-02-28 18:13:00,
2013-02-28 13:18:00,45.7,30.9,29.50,WNW,291,10.0,10.0,56,0.01,,---,0.14,VWS V14.01,2013-02-28 18:18:00,
2013-02-28 13:23:00,45.7,30.8,29.50,NW,305,5.2,5.6,56,0.01,,---,0.14,VWS V14.01,2013-02-28 18:23:00,
2013-02-28 13:28:00,45.8,31.0,29.51,WNW,300,5.8,11.1,56,0.02,,---,0.15,VWS V14.01,2013-02-28 18:28:00,
2013-02-28 13:33:00,46.7,31.8,29.51,WNW,290,3.9,6.4,56,0.02,,---,0.15,VWS V14.01,2013-02-28 18:33:00,
2013-02-28 13:38:00,46.3,30.6,29.51,West,281,9.0,10.4,54,0.01,,---,0.15,VWS V14.01,2013-02-28 18:38:00,
2013-02-28 13:43:00,45.8,30.4,29.51,West,280,12.4,12.7,55,0.01,,---,0.15,VWS V14.01,2013-02-28 18:43:00,
2013-02-28 13:48:00,45.1,30.4,29.51,West,280,8.0,8.0,56,0.01,,---,0.15,VWS V14.01,2013-02-28 18:48:00,
2013-02-28 13:53:00,45.8,31.1,29.50,WNW,298,3.4,8.3,56,0.01,,---,0.15,VWS V14.01,2013-02-28 18:53:00,
2013-02-28 13:58:00,46.2,31.6,29.50,NW,321,7.6,8.0,56,0.01,,---,0.15,VWS V14.01,2013-02-28 18:58:00,
2013-02-28 14:03:00,45.6,30.8,29.50,NNW,336,5.3,7.2,56,0.01,,---,0.15,VWS V14.01,2013-02-28 19:03:00,
2013-02-28 14:08:00,45.5,30.2,29.50,WNW,288,9.4,9.9,55,0.01,,---,0.15,VWS V14.01,2013-02-28 19:08:00,
2013-02-28 14:13:00,45.9,30.8,29.51,NNW,329,5.0,9.7,55,0.01,,---,0.15,VWS V14.01,2013-02-28 19:13:00,
2013-02-28 14:18:00,45.1,29.7,29.50,East,96,10.4,10.6,54,0.01,,---,0.15,VWS V14.01,2013-02-28 19:18:00,
2013-02-28 14:23:00,45.2,30.5,29.50,NW,318,10.3,11.0,56,0.01,,---,0.15,VWS V14.01,2013-02-28 19:23:00,
2013-02-28 14:28:00,44.8,30.4,29.50,WNW,300,7.7,11.7,57,0.00,,---,0.15,VWS V14.01,2013-02-28 19:28:00,
2013-02-28 14:33:00,44.9,31.2,29.51,NNW,339,10.8,15.0,58,0.00,,---,0.15,VWS V14.01,2013-02-28 19:33:00,
2013-02-28 14:38:00,44.3,31.6,29.51,NW,307,9.3,10.7,61,0.01,,---,0.16,VWS V14.01,2013-02-28 19:38:00,
2013-02-28 14:43:00,44.5,31.7,29.51,West,281,6.5,9.9,60,0.01,,---,0.16,VWS V14.01,2013-02-28 19:43:00,
2013-02-28 14:48:00,44.2,31.0,29.51,NW,315,10.4,14.9,59,0.01,,---,0.16,VWS V14.01,2013-02-28 19:48:00,
2013-02-28 14:53:00,43.3,30.6,29.51,West,274,6.2,11.4,60,0.01,,---,0.16,VWS V14.01,2013-02-28 19:53:00,
2013-02-28 14:58:00,44.2,31.9,29.51,NW,321,14.4,14.7,62,0.01,,---,0.16,VWS V14.01,2013-02-28 19:58:00,
2013-02-28 15:03:00,44.0,32.3,29.51,NE,49,8.6,9.2,63,0.01,,---,0.16,VWS V14.01,2013-02-28 20:03:00,
2013-02-28 15:08:00,43.8,31.8,29.51,NW,314,7.5,14.2,62,0.01,,---,0.16,VWS V14.01,2013-02-28 20:08:00,
2013-02-28 15:13:00,44.1,32.2,29.51,North,359,9.6,9.6,63,0.01,,---,0.16,VWS V14.01,2013-02-28 20:13:00,
2013-02-28 15:18:00,43.1,31.2,29.51,NNE,27,12.6,13.0,62,0.01,,---,0.16,VWS V14.01,2013-02-28 20:18:00,
2013-02-28 15:23:00,43.2,30.9,29.51,North,359,7.0,9.9,62,0.01,,---,0.16,VWS V14.01,2013-02-28 20:23:00,
2013-02-28 15:28:00,43.3,30.6,29.51,North,359,0.0,2.1,61,0.01,,---,0.16,VWS V14.01,2013-02-28 20:28:00,
2013-02-28 15:33:00,42.5,29.9,29.51,North,359,0.0,0.0,61,0.01,,---,0.16,VWS V14.01,2013-02-28 20:33:00,
2013-02-28 15:38:00,42.7,30.2,29.51,North,6,0.0,6.8,61,0.01,,---,0.16,VWS V14.01,2013-02-28 20:38:00,
2013-02-28 15:43:00,43.5,30.5,29.51,WNW,285,11.6,14.4,60,0.01,,---,0.17,VWS V14.01,2013-02-28 20:43:00,
2013-02-28 15:48:00,42.7,30.0,29.51,NW,311,8.5,10.4,60,0.01,,---,0.17,VWS V14.01,2013-02-28 20:48:00,
2013-02-28 15:53:00,43.5,30.5,29.51,North,359,8.4,9.7,60,0.01,,---,0.17,VWS V14.01,2013-02-28 20:53:00,
2013-02-28 15:58:00,43.5,30.6,29.51,North,359,9.5,9.5,60,0.01,,---,0.17,VWS V14.01,2013-02-28 20:58:00,
2013-02-28 16:03:00,43.4,30.3,29.51,North,359,0.0,0.0,60,0.01,,---,0.17,VWS V14.01,2013-02-28 21:03:00,
2013-02-28 16:08:00,43.7,30.5,29.51,North,0,0.0,0.0,60,0.01,,---,0.17,VWS V14.01,2013-02-28 21:08:00,
2013-02-28 16:13:00,43.3,30.0,29.51,North,359,0.0,7.5,59,0.01,,---,0.17,VWS V14.01,2013-02-28 21:13:00,
2013-02-28 16:18:00,43.5,30.6,29.51,North,359,0.0,0.2,60,0.01,,---,0.17,VWS V14.01,2013-02-28 21:18:00,
2013-02-28 16:23:00,42.9,29.9,29.51,North,359,0.4,3.6,60,0.01,,---,0.17,VWS V14.01,2013-02-28 21:23:00,
2013-02-28 16:28:00,43.0,29.7,29.51,North,359,0.0,0.0,59,0.01,,---,0.17,VWS V14.01,2013-02-28 21:28:00,
2013-02-28 16:33:00,42.6,28.1,29.50,North,359,0.6,9.8,56,0.01,,---,0.17,VWS V14.01,2013-02-28 21:33:00,
2013-02-28 16:38:00,43.3,28.5,29.51,North,359,0.0,0.2,56,0.01,,---,0.17,VWS V14.01,2013-02-28 21:38:00,
2013-02-28 16:43:00,43.7,28.0,29.50,North,359,0.0,1.4,54,0.00,,---,0.17,VWS V14.01,2013-02-28 21:43:00,
2013-02-28 16:48:00,43.2,27.1,29.51,NNW,333,4.4,6.3,53,0.00,,---,0.17,VWS V14.01,2013-02-28 21:48:00,
2013-02-28 16:53:00,43.4,27.4,29.51,NNE,21,5.0,6.3,53,0.00,,---,0.17,VWS V14.01,2013-02-28 21:53:00,
2013-02-28 16:58:00,43.2,27.1,29.51,NW,321,6.9,8.6,53,0.00,,---,0.17,VWS V14.01,2013-02-28 21:58:00,
2013-02-28 17:03:00,43.2,27.1,29.51,NE,39,7.4,7.4,53,0.01,,---,0.18,VWS V14.01,2013-02-28 22:03:00,
2013-02-28 17:08:00,43.4,26.9,29.51,NW,308,7.3,8.6,52,0.01,,---,0.18,VWS V14.01,2013-02-28 22:08:00,
2013-02-28 17:13:00,43.1,26.2,29.51,NW,312,9.3,10.7,51,0.01,,---,0.18,VWS V14.01,2013-02-28 22:13:00,
2013-02-28 17:18:00,43.1,26.5,29.51,WNW,294,9.3,9.3,52,0.01,,---,0.18,VWS V14.01,2013-02-28 22:18:00,
2013-02-28 17:23:00,42.8,26.4,29.51,NW,321,7.7,9.2,52,0.01,,---,0.18,VWS V14.01,2013-02-28 22:23:00,
2013-02-28 17:28:00,42.8,26.3,29.51,NNW,338,8.0,8.9,52,0.01,,---,0.18,VWS V14.01,2013-02-28 22:28:00,
2013-02-28 17:33:00,42.9,26.5,29.51,South,188,7.6,9.1,52,0.01,,---,0.18,VWS V14.01,2013-02-28 22:33:00,
2013-02-28 17:38:00,42.4,26.1,29.52,WNW,302,4.7,4.7,52,0.01,,---,0.18,VWS V14.01,2013-02-28 22:38:00,
2013-02-28 17:43:00,42.8,26.9,29.52,West,280,5.4,6.8,53,0.01,,---,0.18,VWS V14.01,2013-02-28 22:43:00,
2013-02-28 17:48:00,42.0,26.4,29.52,West,267,4.5,6.6,54,0.01,,---,0.18,VWS V14.01,2013-02-28 22:48:00,
2013-02-28 17:53:00,42.8,27.4,29.52,WNW,292,5.8,6.2,54,0.01,,---,0.18,VWS V14.01,2013-02-28 22:53:00,
2013-02-28 17:58:00,42.4,27.1,29.52,NW,304,3.3,3.8,54,0.01,,---,0.18,VWS V14.01,2013-02-28 22:58:00,
2013-02-28 18:03:00,42.5,27.3,29.53,WNW,298,5.3,7.8,54,0.00,,---,0.18,VWS V14.01,2013-02-28 23:03:00,
2013-02-28 18:08:00,42.0,27.1,29.53,NW,311,6.2,6.2,55,0.00,,---,0.18,VWS V14.01,2013-02-28 23:08:00,
2013-02-28 18:13:00,42.0,27.1,29.53,NNW,339,5.5,5.5,55,0.01,,---,0.19,VWS V14.01,2013-02-28 23:13:00,
2013-02-28 18:18:00,42.6,27.8,29.53,NNW,335,3.8,8.3,56,0.01,,---,0.19,VWS V14.01,2013-02-28 23:18:00,
2013-02-28 18:23:00,42.2,27.6,29.53,NW,311,6.5,7.5,56,0.01,,---,0.19,VWS V14.01,2013-02-28 23:23:00,
2013-02-28 18:28:00,42.7,28.3,29.53,NNW,329,6.2,7.6,56,0.01,,---,0.19,VWS V14.01,2013-02-28 23:28:00,
2013-02-28 18:33:00,42.5,28.2,29.53,WNW,283,4.5,4.5,57,0.01,,---,0.19,VWS V14.01,2013-02-28 23:33:00,
2013-02-28 18:38:00,42.5,28.2,29.54,NW,304,6.7,8.0,57,0.01,,---,0.19,VWS V14.01,2013-02-28 23:38:00,
2013-02-28 18:43:00,42.3,28.0,29.54,NNW,329,4.9,5.3,56,0.01,,---,0.19,VWS V14.01,2013-02-28 23:43:00,
2013-02-28 18:48:00,41.9,27.6,29.54,WNW,297,5.8,6.5,56,0.01,,---,0.19,VWS V14.01,2013-02-28 23:48:00,
2013-02-28 18:53:00,42.3,27.7,29.54,NNW,346,2.7,6.5,56,0.01,,---,0.19,VWS V14.01,2013-02-28 23:53:00,
2013-02-28 18:58:00,42.1,27.3,29.54,NW,312,5.7,8.0,55,0.01,,---,0.19,VWS V14.01,2013-02-28 23:58:00,
2013-02-28 19:03:00,41.9,27.1,29.54,NW,314,4.9,5.7,55,0.01,,---,0.19,VWS V14.01,2013-03-01 00:03:00,
2013-02-28 19:08:00,42.1,27.3,29.55,NW,307,3.3,7.3,55,0.01,,---,0.19,VWS V14.01,2013-03-01 00:08:00,
2013-02-28 19:13:00,41.8,26.8,29.55,NW,305,5.8,7.5,55,0.01,,---,0.19,VWS V14.01,2013-03-01 00:13:00,
2013-02-28 19:18:00,41.9,27.0,29.55,NW,319,6.5,8.1,55,0.00,,---,0.19,VWS V14.01,2013-03-01 00:18:00,
2013-02-28 19:23:00,41.7,27.0,29.55,WNW,300,8.4,9.3,56,0.00,,---,0.19,VWS V14.01,2013-03-01 00:23:00,
2013-02-28 19:28:00,41.4,26.9,29.55,NNW,342,6.0,7.7,56,0.00,,---,0.19,VWS V14.01,2013-03-01 00:28:00,
2013-02-28 19:33:00,41.3,26.8,29.55,North,359,7.1,9.1,56,0.00,,---,0.19,VWS V14.01,2013-03-01 00:33:00,
2013-02-28 19:38:00,41.4,26.8,29.55,North,359,0.3,13.7,56,0.00,,---,0.19,VWS V14.01,2013-03-01 00:38:00,
2013-02-28 19:43:00,41.2,26.8,29.55,North,8,7.3,9.9,56,0.00,,---,0.19,VWS V14.01,2013-03-01 00:43:00,
2013-02-28 19:48:00,41.6,27.3,29.55,NNW,333,8.0,11.8,57,0.01,,---,0.20,VWS V14.01,2013-03-01 00:48:00,
2013-02-28 19:53:00,41.2,27.1,29.55,North,359,1.6,9.8,57,0.01,,---,0.20,VWS V14.01,2013-03-01 00:53:00,
2013-02-28 19:58:00,41.3,27.5,29.55,North,359,0.0,8.6,58,0.01,,---,0.20,VWS V14.01,2013-03-01 00:58:00,
2013-02-28 20:03:00,41.6,27.9,29.56,West,271,9.4,9.4,58,0.01,,---,0.20,VWS V14.01,2013-03-01 01:03:00,
2013-02-28 20:08:00,41.4,27.9,29.55,NW,309,9.5,12.2,58,0.01,,---,0.20,VWS V14.01,2013-03-01 01:08:00,
2013-02-28 20:13:00,41.2,28.1,29.56,WNW,301,7.2,11.9,59,0.01,,---,0.20,VWS V14.01,2013-03-01 01:13:00,
2013-02-28 20:18:00,41.4,28.6,29.56,North,0,12.1,13.9,60,0.01,,---,0.20,VWS V14.01,2013-03-01 01:18:00,
2013-02-28 20:23:00,40.4,28.0,29.56,North,359,9.9,13.1,61,0.01,,---,0.20,VWS V14.01,2013-03-01 01:23:00,
2013-02-28 20:28:00,40.7,28.4,29.55,North,359,1.1,13.5,61,0.01,,---,0.20,VWS V14.01,2013-03-01 01:28:00,
2013-02-28 20:33:00,40.7,28.7,29.56,North,6,9.6,12.6,62,0.01,,---,0.20,VWS V14.01,2013-03-01 01:33:00,
2013-02-28 20:38:00,40.4,28.5,29.56,NNW,329,10.8,12.1,62,0.01,,---,0.20,VWS V14.01,2013-03-01 01:38:00,
2013-02-28 20:43:00,40.3,28.5,29.56,NW,311,14.2,16.2,62,0.01,,---,0.20,VWS V14.01,2013-03-01 01:43:00,
2013-02-28 20:48:00,40.7,29.1,29.56,North,359,0.0,9.1,63,0.00,,---,0.20,VWS V14.01,2013-03-01 01:48:00,
2013-02-28 20:53:00,39.9,28.5,29.56,NNE,21,10.2,10.2,63,0.00,,---,0.20,VWS V14.01,2013-03-01 01:53:00,
2013-02-28 20:58:00,39.9,28.6,29.57,North,359,8.1,11.4,64,0.00,,---,0.20,VWS V14.01,2013-03-01 01:58:00,
2013-02-28 21:02:00,40.0,28.8,29.56,NW,311,10.4,11.0,64,0.00,,---,0.20,VWS V14.01,2013-03-01 02:02:00,
2013-02-28 21:07:00,40.3,29.3,29.57,WNW,283,9.4,9.4,64,0.01,,---,0.21,VWS V14.01,2013-03-01 02:07:00,
2013-02-28 21:12:00,40.2,29.4,29.57,WNW,288,8.5,8.8,65,0.01,,---,0.21,VWS V14.01,2013-03-01 02:12:00,
2013-02-28 21:17:00,39.8,29.2,29.57,NW,308,6.2,6.2,65,0.01,,---,0.21,VWS V14.01,2013-03-01 02:17:00,
2013-02-28 21:22:00,40.0,29.5,29.57,North,359,0.8,8.4,66,0.01,,---,0.21,VWS V14.01,2013-03-01 02:22:00,
2013-02-28 21:24:00,38.0,30.2,29.57,South,179,6.6,7.8,73,0.00,,---,0.21,VWS V14.01,2013-03-01 02:24:00,
2013-02-28 21:27:00,39.0,28.6,29.57,NW,322,12.6,12.6,66,0.01,,---,0.21,VWS V14.01,2013-03-01 02:27:00,
2013-02-28 21:32:00,39.7,29.4,29.56,North,359,2.0,8.2,66,0.01,,---,0.21,VWS V14.01,2013-03-01 02:32:00,
2013-02-28 21:37:00,39.1,29.1,29.57,West,276,7.1,9.2,67,0.01,,---,0.21,VWS V14.01,2013-03-01 02:37:00,
2013-02-28 21:42:00,39.1,29.2,29.57,North,359,3.7,9.0,67,0.01,,---,0.21,VWS V14.01,2013-03-01 02:42:00,
2013-02-28 21:47:00,38.5,28.8,29.57,North,359,5.7,7.5,68,0.01,,---,0.21,VWS V14.01,2013-03-01 02:47:00,
2013-02-28 21:52:00,38.6,29.0,29.57,North,3,6.6,12.2,68,0.01,,---,0.21,VWS V14.01,2013-03-01 02:52:00,
2013-02-28 21:57:00,38.9,29.4,29.58,NNW,342,3.6,8.7,68,0.01,,---,0.21,VWS V14.01,2013-03-01 02:57:00,
2013-02-28 22:02:00,38.8,29.5,29.58,NNW,342,7.5,9.7,69,0.01,,---,0.21,VWS V14.01,2013-03-01 03:02:00,
2013-02-28 22:07:00,38.6,29.4,29.58,NNW,332,7.0,7.0,69,0.01,,---,0.21,VWS V14.01,2013-03-01 03:07:00,
2013-02-28 22:12:00,38.2,29.3,29.58,West,280,8.7,9.6,70,0.00,,---,0.21,VWS V14.01,2013-03-01 03:12:00,
2013-02-28 22:17:00,38.3,29.5,29.57,North,359,8.3,10.8,70,0.00,,---,0.21,VWS V14.01,2013-03-01 03:17:00,
2013-02-28 22:22:00,37.7,29.1,29.58,North,359,9.6,10.6,71,0.00,,---,0.21,VWS V14.01,2013-03-01 03:22:00,
2013-02-28 22:27:00,37.6,29.2,29.58,North,359,9.1,9.7,71,0.00,,---,0.21,VWS V14.01,2013-03-01 03:27:00,
2013-02-28 22:32:00,38.2,30.0,29.57,North,4,7.0,7.8,72,0.00,,---,0.21,VWS V14.01,2013-03-01 03:32:00,
2013-02-28 22:37:00,37.7,29.7,29.57,NNW,347,6.7,10.1,72,0.00,,---,0.21,VWS V14.01,2013-03-01 03:37:00,
2013-02-28 22:42:00,37.7,29.9,29.58,NW,322,5.1,7.8,73,0.00,,---,0.21,VWS V14.01,2013-03-01 03:42:00,
2013-02-28 22:47:00,37.6,29.9,29.58,NNE,28,3.2,6.6,74,0.00,,---,0.21,VWS V14.01,2013-03-01 03:47:00,
2013-02-28 22:52:00,37.7,30.2,29.57,North,359,5.5,5.5,74,0.01,,---,0.22,VWS V14.01,2013-03-01 03:52:00,
2013-02-28 22:57:00,37.5,30.3,29.57,North,359,2.4,9.1,75,0.01,,---,0.22,VWS V14.01,2013-03-01 03:57:00,
2013-02-28 23:02:00,37.5,30.7,29.57,NNE,30,0.0,9.6,76,0.01,,---,0.22,VWS V14.01,2013-03-01 04:02:00,
2013-02-28 23:07:00,37.4,30.9,29.57,West,277,7.9,9.1,77,0.01,,---,0.22,VWS V14.01,2013-03-01 04:07:00,
2013-02-28 23:12:00,37.2,31.0,29.57,NNW,338,5.8,11.1,78,0.01,,---,0.22,VWS V14.01,2013-03-01 04:12:00,
2013-02-28 23:17:00,37.0,31.0,29.57,North,0,5.2,12.9,79,0.01,,---,0.22,VWS V14.01,2013-03-01 04:17:00,
2013-02-28 23:22:00,36.6,30.9,29.57,West,264,13.7,14.4,80,0.01,,---,0.22,VWS V14.01,2013-03-01 04:22:00,
2013-02-28 23:27:00,36.8,31.2,29.57,NW,315,0.0,8.1,80,0.01,,---,0.22,VWS V14.01,2013-03-01 04:27:00,
2013-02-28 23:32:00,36.9,31.5,29.57,NE,41,12.7,13.7,80,0.01,,---,0.22,VWS V14.01,2013-03-01 04:32:00,
2013-02-28 23:37:00,36.9,31.5,29.57,North,359,0.0,8.6,81,0.01,,---,0.22,VWS V14.01,2013-03-01 04:37:00,
2013-02-28 23:42:00,36.7,31.5,29.56,North,4,3.3,7.6,81,0.01,,---,0.22,VWS V14.01,2013-03-01 04:42:00,
2013-02-28 23:47:00,36.7,31.6,29.56,NNW,329,7.5,11.5,82,0.01,,---,0.22,VWS V14.01,2013-03-01 04:47:00,
2013-02-28 23:52:00,36.1,31.1,29.56,WNW,291,7.5,8.3,82,0.00,,---,0.22,VWS V14.01,2013-03-01 04:52:00,
2013-02-28 23:57:00,36.7,31.9,29.56,NW,307,11.4,11.6,82,0.00,,---,0.22,VWS V14.01,2013-03-01 04:57:00,